Terminal Aerodrome Forecast
Issued by NWS Sioux Falls, SD

Home | Current Version | Previous Version | Text Only | Print | Product List | Glossary On
Versions: 1 2 3 4 5 6 7 8 9 10 11 12 13 14 15 16
000
FTUS43 KFSD 241725
TAFFSD
TAF
KFSD 241725Z 2418/2518 16012KT P6SM FEW030 SCT250
     FM250100 15010KT P6SM SCT150 BKN250
     FM250800 16013G19KT P6SM SCT200 WS013/19040KT
     FM251200 17014G21KT P6SM FEW150=

USA.gov is the U.S. government's official web portal to all federal, state and local government web resources and services.